Time;durP1;ratioP1;P1;durP2;ratioP2;P2;SDS_P1;SDS_P2;PMS_P1;PMS_P2;Temp;Humidity;BMP_temperature;BMP_pressure;BME280_temperature;BME280_humidity;BME280_pressure;Samples;Min_cycle;Max_cycle;Signal;HPM_P1;HPM_P2
2021/12/01 00:00:27;;;;;;;8.48;7.35;;;12.20;76.30;;;;;;5053333;28;20028;-83
2021/12/01 00:02:54;;;;;;;8.68;7.40;;;12.20;76.40;;;;;;5053663;28;20074;-84
2021/12/01 00:05:26;;;;;;;8.20;7.03;;;12.20;76.30;;;;;;5048423;28;20036;-84
2021/12/01 00:07:52;;;;;;;8.50;7.22;;;12.30;76.40;;;;;;5066375;28;20067;-83
2021/12/01 00:10:19;;;;;;;8.48;7.40;;;12.30;76.40;;;;;;5071646;28;20036;-84
2021/12/01 00:12:45;;;;;;;8.35;7.18;;;12.20;76.40;;;;;;5073038;28;20028;-83
2021/12/01 00:15:12;;;;;;;8.68;7.78;;;12.30;76.40;;;;;;5055762;28;20456;-82
2021/12/01 00:17:37;;;;;;;8.05;6.53;;;12.30;76.40;;;;;;5051110;28;20594;-85
2021/12/01 00:20:12;;;;;;;8.35;6.93;;;12.30;76.40;;;;;;5054140;28;20059;-83
2021/12/01 00:22:38;;;;;;;7.72;6.47;;;12.30;76.40;;;;;;5051174;28;20063;-84
2021/12/01 00:25:06;;;;;;;7.72;6.45;;;12.30;76.40;;;;;;5060012;28;20031;-84
2021/12/01 00:27:32;;;;;;;7.45;6.30;;;12.30;76.40;;;;;;5071237;28;20029;-85
2021/12/01 00:29:58;;;;;;;7.00;5.75;;;12.30;76.40;;;;;;5054800;28;20031;-86
2021/12/01 00:32:25;;;;;;;7.63;6.00;;;12.30;76.40;;;;;;5049674;28;20045;-85
2021/12/01 00:34:51;;;;;;;7.50;6.32;;;12.30;76.40;;;;;;5054997;28;20024;-85
2021/12/01 00:37:17;;;;;;;6.90;5.80;;;12.30;76.40;;;;;;5055613;28;20170;-84
2021/12/01 00:39:47;;;;;;;6.93;5.50;;;12.30;76.40;;;;;;5047469;28;20119;-85
2021/12/01 00:42:12;;;;;;;7.20;5.88;;;12.30;76.40;;;;;;5067646;28;20095;-85
2021/12/01 00:44:45;;;;;;;6.47;4.80;;;12.30;76.40;;;;;;5072368;28;20123;-84
2021/12/01 00:47:13;;;;;;;6.75;5.63;;;12.30;76.40;;;;;;5051835;28;20037;-85
2021/12/01 00:49:40;;;;;;;5.90;4.90;;;12.30;76.40;;;;;;5049097;28;20033;-85
2021/12/01 00:52:06;;;;;;;7.25;5.70;;;12.30;76.40;;;;;;5069467;28;20020;-86
2021/12/01 00:54:32;;;;;;;5.45;4.60;;;12.30;76.40;;;;;;5036068;28;20029;-84
2021/12/01 00:56:59;;;;;;;5.35;4.80;;;12.40;76.40;;;;;;5038627;28;20098;-85
2021/12/01 00:59:25;;;;;;;6.10;4.82;;;12.40;76.50;;;;;;5054900;28;20376;-84
2021/12/01 01:01:51;;;;;;;5.80;4.50;;;12.30;76.40;;;;;;5052394;28;20034;-84
2021/12/01 01:04:17;;;;;;;6.00;4.25;;;12.40;76.50;;;;;;5071847;28;20042;-84
2021/12/01 01:06:43;;;;;;;4.70;4.20;;;12.40;76.40;;;;;;5066160;28;20095;-84
2021/12/01 01:09:09;;;;;;;6.18;4.13;;;12.40;76.40;;;;;;5054751;28;20552;-85
2021/12/01 01:17:10;;;;;;;5.22;4.13;;;12.40;76.40;;;;;;5071587;28;20095;-86
2021/12/01 01:19:38;;;;;;;4.82;3.55;;;12.40;76.40;;;;;;5050526;28;20037;-85
2021/12/01 01:22:05;;;;;;;4.50;3.58;;;12.40;76.50;;;;;;5054472;28;20025;-92
2021/12/01 01:24:31;;;;;;;7.05;3.42;;;12.40;76.50;;;;;;5053511;28;20044;-84
2021/12/01 01:26:57;;;;;;;3.95;3.10;;;12.40;76.50;;;;;;5051762;28;20048;-85
2021/12/01 01:29:24;;;;;;;4.40;3.30;;;12.40;76.50;;;;;;5072424;28;20036;-84
2021/12/01 01:31:57;;;;;;;4.47;3.30;;;12.40;76.50;;;;;;5076335;28;20058;-84
2021/12/01 01:34:25;;;;;;;3.90;2.97;;;12.40;76.50;;;;;;5043421;28;20036;-85
2021/12/01 01:36:53;;;;;;;3.47;2.83;;;12.40;76.50;;;;;;5069399;28;20033;-84
2021/12/01 01:39:19;;;;;;;4.22;3.20;;;12.50;76.50;;;;;;5067556;28;20029;-84
2021/12/01 01:41:45;;;;;;;4.03;3.00;;;12.50;76.50;;;;;;5054954;28;20031;-85
2021/12/01 01:44:11;;;;;;;3.67;2.85;;;12.50;76.50;;;;;;5076665;28;20028;-84
2021/12/01 01:46:39;;;;;;;3.40;2.80;;;12.50;76.50;;;;;;5075293;28;20035;-84
2021/12/01 01:49:46;;;;;;;3.33;2.78;;;12.50;76.50;;;;;;5074649;28;20016;-85
2021/12/01 01:51:59;;;;;;;2.80;2.50;;;12.50;76.60;;;;;;5070116;28;20037;-84
2021/12/01 01:54:25;;;;;;;2.47;2.28;;;12.50;76.40;;;;;;5041414;28;20056;-84
2021/12/01 01:56:51;;;;;;;3.17;2.47;;;12.50;76.50;;;;;;5055033;28;20130;-84
2021/12/01 01:59:17;;;;;;;3.17;2.45;;;12.50;76.50;;;;;;5055982;28;20033;-85
2021/12/01 02:01:46;;;;;;;2.33;2.10;;;12.50;76.60;;;;;;5070761;28;20605;-85
2021/12/01 02:04:15;;;;;;;2.97;2.45;;;12.50;76.50;;;;;;5042170;28;20375;-84
2021/12/01 02:06:45;;;;;;;2.88;2.10;;;12.50;76.60;;;;;;5073107;28;20129;-85
2021/12/01 02:09:12;;;;;;;3.45;2.40;;;12.50;76.60;;;;;;5039545;28;20029;-87
2021/12/01 02:11:38;;;;;;;2.70;2.20;;;12.50;76.60;;;;;;5054515;28;20067;-84
2021/12/01 02:14:05;;;;;;;3.08;2.17;;;12.50;76.50;;;;;;5066886;28;20088;-84
2021/12/01 02:16:31;;;;;;;2.03;1.83;;;12.50;76.50;;;;;;5036545;28;20096;-82
2021/12/01 02:18:57;;;;;;;2.30;2.10;;;12.60;76.80;;;;;;5035514;28;20045;-84
2021/12/01 02:21:28;;;;;;;2.10;1.90;;;12.60;76.60;;;;;;5032996;28;20176;-84
2021/12/01 02:24:15;;;;;;;2.28;2.08;;;12.60;76.60;;;;;;5069690;28;20025;-85
2021/12/01 02:26:44;;;;;;;2.15;1.75;;;12.60;76.70;;;;;;5068950;28;20086;-86
2021/12/01 02:29:17;;;;;;;2.28;1.92;;;12.60;76.60;;;;;;5073616;28;20400;-84
2021/12/01 02:31:44;;;;;;;2.28;1.80;;;12.60;76.80;;;;;;5072966;28;20515;-86
2021/12/01 02:34:17;;;;;;;2.30;1.90;;;12.60;76.60;;;;;;5057578;28;20047;-90
2021/12/01 02:36:56;;;;;;;2.03;1.83;;;12.60;76.60;;;;;;5069857;28;20036;-86
2021/12/01 02:39:22;;;;;;;2.58;1.95;;;12.60;76.60;;;;;;5062302;28;20029;-84
2021/12/01 02:41:53;;;;;;;2.22;1.88;;;12.60;76.60;;;;;;5056864;28;20366;-85
2021/12/01 02:44:20;;;;;;;1.88;1.73;;;12.60;76.60;;;;;;5057493;28;20021;-83
2021/12/01 02:46:46;;;;;;;2.45;1.70;;;12.60;76.60;;;;;;5043672;28;20044;-84
2021/12/01 02:49:12;;;;;;;2.35;1.88;;;12.60;76.60;;;;;;5069139;28;20020;-85
2021/12/01 02:51:38;;;;;;;1.98;1.77;;;12.60;76.60;;;;;;5070184;28;20120;-85
2021/12/01 02:54:07;;;;;;;1.90;1.65;;;12.60;76.60;;;;;;5045284;28;20055;-85
2021/12/01 02:56:34;;;;;;;1.90;1.80;;;12.60;76.60;;;;;;5072575;28;20108;-85
2021/12/01 02:59:02;;;;;;;1.58;1.48;;;12.60;76.60;;;;;;5071956;28;20529;-85
2021/12/01 03:01:29;;;;;;;1.77;1.60;;;12.60;76.60;;;;;;5052069;28;20029;-84
2021/12/01 03:03:56;;;;;;;1.88;1.73;;;12.60;76.60;;;;;;5049609;28;20486;-90
2021/12/01 03:06:25;;;;;;;1.50;1.40;;;12.60;76.60;;;;;;5072165;28;20032;-84
2021/12/01 03:08:51;;;;;;;1.60;1.50;;;12.60;76.60;;;;;;5077877;28;20040;-84
2021/12/01 03:11:17;;;;;;;1.75;1.60;;;12.70;76.60;;;;;;5073053;28;20016;-84
2021/12/01 03:13:43;;;;;;;1.67;1.50;;;12.60;76.60;;;;;;5040744;28;20082;-85
2021/12/01 03:16:09;;;;;;;1.73;1.52;;;12.60;76.60;;;;;;5047107;28;20029;-85
2021/12/01 03:18:35;;;;;;;1.75;1.52;;;12.70;76.70;;;;;;5048603;28;20553;-84
2021/12/01 03:21:01;;;;;;;1.63;1.40;;;12.70;76.70;;;;;;5062571;28;20021;-86
2021/12/01 03:23:27;;;;;;;1.42;1.33;;;12.70;76.70;;;;;;5059763;28;20040;-84
2021/12/01 03:25:54;;;;;;;1.52;1.42;;;12.70;76.60;;;;;;5070527;28;20025;-84
2021/12/01 03:28:20;;;;;;;1.65;1.55;;;12.70;76.60;;;;;;5047436;28;20025;-85
2021/12/01 03:30:48;;;;;;;1.50;1.40;;;12.70;76.70;;;;;;5057038;28;20028;-83
2021/12/01 03:33:19;;;;;;;1.50;1.40;;;12.70;76.70;;;;;;5058601;28;20032;-84
2021/12/01 03:35:46;;;;;;;1.30;1.20;;;12.70;76.70;;;;;;5071347;28;20040;-84
2021/12/01 03:38:13;;;;;;;1.33;1.23;;;12.60;76.60;;;;;;5033536;28;20060;-83
2021/12/01 03:40:40;;;;;;;1.55;1.45;;;12.70;76.60;;;;;;5073471;28;20033;-85
2021/12/01 03:43:06;;;;;;;1.38;1.27;;;12.70;76.60;;;;;;5063752;28;20036;-85
2021/12/01 03:45:32;;;;;;;1.40;1.30;;;12.70;76.70;;;;;;5067106;28;20029;-84
2021/12/01 03:47:58;;;;;;;1.40;1.30;;;12.70;76.60;;;;;;5069324;28;20025;-85
2021/12/01 03:50:24;;;;;;;1.50;1.40;;;12.70;76.60;;;;;;5074944;28;20056;-84
2021/12/01 03:52:50;;;;;;;1.35;1.25;;;12.70;76.60;;;;;;5056676;28;20056;-82
2021/12/01 03:55:16;;;;;;;1.10;1.10;;;12.70;76.60;;;;;;5036798;28;20048;-89
2021/12/01 03:57:42;;;;;;;1.30;1.20;;;12.70;76.60;;;;;;5049610;28;20037;-84
2021/12/01 04:00:12;;;;;;;1.30;1.20;;;12.70;76.60;;;;;;5056060;28;20028;-84
2021/12/01 04:02:39;;;;;;;1.48;1.38;;;12.70;76.70;;;;;;5069606;28;20028;-84
2021/12/01 04:05:05;;;;;;;1.48;1.38;;;12.70;76.60;;;;;;5048011;28;20428;-85
2021/12/01 04:07:31;;;;;;;1.30;1.17;;;12.60;76.60;;;;;;5033587;28;20028;-84
2021/12/01 04:09:57;;;;;;;1.50;1.40;;;12.60;76.60;;;;;;5068342;28;20024;-84
2021/12/01 04:12:23;;;;;;;1.38;1.27;;;12.60;76.60;;;;;;5072140;28;20082;-83
2021/12/01 04:14:49;;;;;;;1.50;1.40;;;12.70;76.60;;;;;;5062543;28;20076;-83
2021/12/01 04:17:15;;;;;;;1.38;1.27;;;12.60;76.60;;;;;;5019816;28;20544;-85
2021/12/01 04:19:41;;;;;;;1.40;1.30;;;12.60;76.60;;;;;;5046635;28;20385;-84
2021/12/01 04:22:07;;;;;;;1.30;1.20;;;12.60;76.60;;;;;;5068951;28;20039;-85
2021/12/01 04:24:32;;;;;;;1.48;1.38;;;12.60;76.60;;;;;;5054834;28;20039;-84
2021/12/01 04:26:58;;;;;;;1.60;1.50;;;12.60;76.60;;;;;;5055567;28;20024;-84
2021/12/01 04:29:26;;;;;;;1.30;1.20;;;12.60;76.60;;;;;;5069059;28;20486;-84
2021/12/01 04:31:52;;;;;;;1.50;1.40;;;12.60;76.60;;;;;;5027620;28;20086;-83
2021/12/01 04:34:20;;;;;;;1.35;1.25;;;12.60;76.60;;;;;;5050433;28;20028;-83
2021/12/01 04:36:48;;;;;;;1.15;1.10;;;12.60;76.60;;;;;;5071370;28;20021;-82
2021/12/01 04:39:16;;;;;;;1.50;1.40;;;12.60;76.60;;;;;;5051796;28;20033;-84
2021/12/01 04:41:58;;;;;;;1.45;1.35;;;12.60;76.60;;;;;;5072194;28;20047;-84
2021/12/01 04:44:26;;;;;;;1.52;1.42;;;12.60;76.60;;;;;;5072797;28;20028;-83
2021/12/01 04:46:56;;;;;;;1.35;1.25;;;12.60;76.60;;;;;;5072004;28;20028;-83
2021/12/01 04:49:23;;;;;;;1.50;1.40;;;12.60;76.60;;;;;;5056099;28;20035;-84
2021/12/01 04:51:53;;;;;;;1.40;1.30;;;12.60;76.60;;;;;;5069955;28;20029;-83
2021/12/01 04:54:19;;;;;;;1.88;1.42;;;12.60;76.60;;;;;;5051886;28;20365;-84
2021/12/01 04:56:46;;;;;;;1.60;1.50;;;12.60;76.60;;;;;;5068751;28;20052;-83
2021/12/01 04:59:13;;;;;;;1.60;1.50;;;12.60;76.60;;;;;;5048864;28;20054;-84
2021/12/01 05:01:40;;;;;;;1.40;1.30;;;12.60;76.60;;;;;;5049365;28;20043;-84
2021/12/01 05:04:07;;;;;;;1.83;1.30;;;12.60;76.60;;;;;;5047580;28;20032;-84
2021/12/01 05:06:34;;;;;;;1.60;1.50;;;12.60;76.60;;;;;;5055498;28;20181;-85
2021/12/01 05:09:00;;;;;;;1.90;1.60;;;12.60;76.60;;;;;;5066206;28;20153;-84
2021/12/01 05:11:26;;;;;;;1.50;1.40;;;12.50;76.60;;;;;;5049917;28;20021;-85
2021/12/01 05:13:53;;;;;;;1.45;1.33;;;12.60;76.70;;;;;;5070560;28;20036;-84
2021/12/01 05:16:19;;;;;;;1.45;1.35;;;12.50;76.60;;;;;;5051855;28;20036;-84
2021/12/01 05:18:46;;;;;;;1.70;1.60;;;12.60;76.70;;;;;;5068876;28;20025;-86
2021/12/01 05:21:12;;;;;;;1.60;1.50;;;12.50;76.60;;;;;;5055018;28;20031;-84
2021/12/01 05:23:38;;;;;;;1.50;1.40;;;12.50;76.60;;;;;;5055575;28;20024;-84
2021/12/01 05:26:06;;;;;;;2.03;1.65;;;12.50;76.60;;;;;;5062933;28;20025;-84
2021/12/01 05:28:32;;;;;;;1.88;1.65;;;12.50;76.60;;;;;;5064560;28;20119;-87
2021/12/01 05:30:58;;;;;;;1.92;1.58;;;12.50;76.60;;;;;;5047545;28;20436;-83
2021/12/01 05:33:23;;;;;;;1.60;1.50;;;12.50;76.60;;;;;;5057008;28;20028;-85
2021/12/01 05:35:49;;;;;;;1.95;1.65;;;12.50;76.60;;;;;;5032685;28;20115;-82
2021/12/01 05:38:16;;;;;;;1.55;1.45;;;12.50;76.60;;;;;;5051107;28;20036;-84
2021/12/01 05:40:47;;;;;;;2.03;1.65;;;12.50;76.60;;;;;;5064238;28;20055;-88
2021/12/01 05:43:14;;;;;;;1.65;1.55;;;12.50;76.70;;;;;;5067283;28;20089;-86
2021/12/01 05:45:42;;;;;;;1.50;1.40;;;12.40;76.60;;;;;;5071268;28;20033;-86
2021/12/01 05:48:09;;;;;;;1.63;1.50;;;12.40;76.60;;;;;;5028780;28;20129;-88
2021/12/01 05:50:35;;;;;;;2.40;1.70;;;12.50;76.70;;;;;;5050531;28;20052;-86
2021/12/01 05:53:01;;;;;;;1.55;1.45;;;12.40;76.70;;;;;;5047014;28;20032;-85
2021/12/01 05:55:27;;;;;;;1.50;1.40;;;12.40;76.70;;;;;;5049176;28;20025;-86
2021/12/01 05:57:53;;;;;;;1.50;1.40;;;12.40;76.70;;;;;;5021155;28;20055;-83
2021/12/01 06:00:19;;;;;;;1.75;1.52;;;12.40;76.70;;;;;;5045587;28;20024;-79
2021/12/01 06:02:49;;;;;;;1.42;1.30;;;12.40;76.80;;;;;;5045937;28;20546;-83
2021/12/01 06:05:15;;;;;;;1.33;1.23;;;12.40;76.70;;;;;;5048159;28;20040;-82
2021/12/01 06:07:41;;;;;;;1.45;1.35;;;12.40;76.70;;;;;;5070129;28;20032;-80
2021/12/01 06:10:07;;;;;;;1.50;1.40;;;12.40;76.80;;;;;;5055362;28;20051;-79
2021/12/01 06:12:33;;;;;;;1.15;1.05;;;12.40;76.80;;;;;;5032108;28;20032;-79
2021/12/01 06:15:00;;;;;;;1.48;1.30;;;12.40;76.80;;;;;;5040313;28;20374;-79
2021/12/01 06:17:26;;;;;;;1.27;1.17;;;12.40;76.80;;;;;;5056551;28;20060;-79
2021/12/01 06:19:53;;;;;;;1.67;1.27;;;12.40;76.80;;;;;;5073417;28;20071;-83
2021/12/01 06:22:19;;;;;;;1.60;1.50;;;12.40;76.80;;;;;;5041444;28;20021;-81
2021/12/01 06:24:45;;;;;;;1.40;1.30;;;12.40;76.80;;;;;;5046946;28;20029;-82
2021/12/01 06:27:11;;;;;;;1.25;1.15;;;12.40;76.80;;;;;;5068631;28;20111;-81
2021/12/01 06:29:37;;;;;;;1.50;1.20;;;12.30;76.70;;;;;;5080657;28;20381;-81
2021/12/01 06:32:04;;;;;;;1.23;1.13;;;12.30;76.70;;;;;;5054017;28;20025;-81
2021/12/01 06:34:30;;;;;;;1.10;1.10;;;12.30;76.80;;;;;;5064912;28;20028;-82
2021/12/01 06:36:56;;;;;;;1.98;1.10;;;12.30;76.80;;;;;;5057507;28;20029;-80
2021/12/01 06:39:21;;;;;;;1.60;1.27;;;12.30;76.80;;;;;;5073995;28;20108;-82
2021/12/01 06:41:47;;;;;;;1.23;1.13;;;12.30;76.80;;;;;;5053584;28;20538;-81
2021/12/01 06:44:14;;;;;;;1.13;1.10;;;12.30;76.80;;;;;;5074308;28;20058;-81
2021/12/01 06:46:40;;;;;;;1.23;1.10;;;12.30;77.40;;;;;;5040246;28;20029;-82
2021/12/01 06:49:06;;;;;;;1.10;1.10;;;12.30;76.80;;;;;;5049056;28;20040;-81
2021/12/01 06:51:32;;;;;;;1.30;1.20;;;12.20;76.80;;;;;;5041584;28;20009;-83
2021/12/01 06:53:57;;;;;;;1.20;1.10;;;12.20;76.80;;;;;;5055023;28;20039;-81
2021/12/01 06:56:23;;;;;;;0.95;0.93;;;12.20;76.80;;;;;;5075059;28;20048;-81
2021/12/01 06:58:50;;;;;;;1.25;1.15;;;12.20;76.80;;;;;;5050206;28;20029;-84
2021/12/01 07:01:15;;;;;;;1.30;1.20;;;12.30;77.50;;;;;;5073716;28;20056;-83
2021/12/01 07:03:41;;;;;;;0.98;0.98;;;12.30;76.80;;;;;;5056591;28;20055;-81
2021/12/01 07:06:07;;;;;;;1.10;1.00;;;12.20;76.80;;;;;;5053961;28;20040;-79
2021/12/01 07:08:35;;;;;;;1.00;1.00;;;12.20;76.80;;;;;;5049615;28;20089;-81
2021/12/01 07:11:02;;;;;;;1.42;1.10;;;12.20;76.80;;;;;;5075042;28;20032;-81
2021/12/01 07:13:32;;;;;;;1.30;1.20;;;12.20;76.80;;;;;;5057322;28;20025;-81
2021/12/01 07:16:00;;;;;;;1.00;1.00;;;12.20;76.80;;;;;;5073993;28;20442;-81
2021/12/01 07:18:26;;;;;;;0.90;0.90;;;12.20;76.80;;;;;;5075376;28;20024;-80
2021/12/01 07:20:52;;;;;;;1.00;1.00;;;12.20;76.80;;;;;;5044374;28;20124;-82
2021/12/01 07:23:18;;;;;;;0.90;0.90;;;12.20;76.80;;;;;;5057917;28;20048;-87
2021/12/01 07:25:44;;;;;;;0.90;0.90;;;12.20;76.80;;;;;;5078249;28;20033;-81
2021/12/01 07:28:10;;;;;;;1.00;1.00;;;12.20;76.80;;;;;;5063664;28;20070;-80
2021/12/01 07:30:39;;;;;;;1.00;1.00;;;12.20;76.90;;;;;;5072782;28;20055;-80
2021/12/01 07:33:05;;;;;;;1.00;1.00;;;12.10;76.80;;;;;;5073783;28;20017;-82
2021/12/01 07:35:31;;;;;;;1.15;1.05;;;12.10;76.80;;;;;;5073393;28;20119;-82
2021/12/01 07:37:57;;;;;;;1.00;1.00;;;12.10;76.80;;;;;;5068336;28;20510;-82
2021/12/01 07:40:23;;;;;;;0.80;0.80;;;12.20;76.90;;;;;;5072836;28;20391;-82
2021/12/01 07:42:48;;;;;;;0.93;0.93;;;12.20;76.90;;;;;;5059822;28;20056;-81
2021/12/01 07:45:14;;;;;;;0.95;0.95;;;12.10;76.80;;;;;;5035399;28;20113;-81
2021/12/01 07:47:41;;;;;;;0.98;0.98;;;12.10;76.80;;;;;;5024377;28;20116;-81
2021/12/01 07:50:07;;;;;;;1.00;1.00;;;12.20;76.90;;;;;;5036111;28;20056;-81
2021/12/01 07:52:35;;;;;;;0.90;0.90;;;12.10;76.80;;;;;;5056378;28;20376;-81
2021/12/01 07:55:01;;;;;;;1.83;1.00;;;12.10;76.80;;;;;;5056555;28;20038;-81
2021/12/01 07:57:26;;;;;;;1.05;0.95;;;12.10;76.90;;;;;;5056400;28;20399;-84
2021/12/01 07:59:55;;;;;;;1.00;1.00;;;12.10;76.90;;;;;;5073213;28;20024;-81
2021/12/01 08:02:21;;;;;;;1.25;1.10;;;12.10;76.90;;;;;;5036309;28;20043;-81
2021/12/01 08:04:47;;;;;;;0.90;0.90;;;12.10;76.90;;;;;;5052667;28;20037;-83
2021/12/01 08:07:13;;;;;;;1.00;1.00;;;12.10;76.90;;;;;;5069385;28;20028;-80
2021/12/01 08:09:39;;;;;;;1.10;1.00;;;12.10;76.90;;;;;;5066007;28;20495;-85
2021/12/01 08:12:07;;;;;;;1.02;1.02;;;12.10;76.90;;;;;;5052168;28;20028;-82
2021/12/01 08:14:33;;;;;;;1.20;1.10;;;12.10;76.90;;;;;;5032501;28;20043;-81
2021/12/01 08:16:59;;;;;;;1.33;1.23;;;12.10;76.90;;;;;;5074428;28;20388;-85
2021/12/01 08:19:25;;;;;;;1.13;1.10;;;12.10;76.90;;;;;;5053171;28;20028;-82
2021/12/01 08:21:50;;;;;;;1.40;1.30;;;12.10;76.90;;;;;;5074245;28;20118;-82
2021/12/01 08:24:17;;;;;;;1.45;1.33;;;12.10;76.90;;;;;;5054512;28;20028;-85
2021/12/01 08:26:44;;;;;;;1.40;1.30;;;12.10;76.90;;;;;;5036014;28;20069;-83
2021/12/01 08:29:11;;;;;;;1.40;1.30;;;12.10;76.90;;;;;;5053828;28;20017;-83
2021/12/01 08:31:36;;;;;;;1.92;1.55;;;12.10;77.00;;;;;;5054420;28;20120;-84
2021/12/01 08:34:03;;;;;;;1.67;1.50;;;12.10;76.90;;;;;;5072266;28;20053;-82
2021/12/01 08:36:29;;;;;;;1.50;1.40;;;12.10;77.00;;;;;;5057966;28;20554;-81
2021/12/01 08:38:54;;;;;;;1.60;1.50;;;12.10;77.00;;;;;;5072764;28;20101;-82
2021/12/01 08:41:20;;;;;;;1.80;1.70;;;12.10;76.90;;;;;;5073235;28;20461;-82
2021/12/01 08:43:46;;;;;;;1.70;1.55;;;12.10;77.00;;;;;;5067543;28;20100;-82
2021/12/01 08:46:14;;;;;;;1.70;1.60;;;12.10;77.00;;;;;;5073015;28;20090;-83
2021/12/01 08:48:39;;;;;;;1.85;1.70;;;12.10;77.00;;;;;;5051063;28;20036;-83
2021/12/01 08:51:07;;;;;;;1.90;1.70;;;12.10;77.00;;;;;;5021773;28;20033;-83
2021/12/01 08:53:35;;;;;;;2.05;1.73;;;12.10;77.00;;;;;;5033743;28;20114;-85
2021/12/01 08:56:03;;;;;;;2.10;1.90;;;12.10;77.60;;;;;;5071226;28;20462;-84
2021/12/01 08:58:29;;;;;;;2.03;1.83;;;12.10;77.00;;;;;;5055985;28;20109;-84
2021/12/01 09:00:55;;;;;;;1.92;1.73;;;12.10;77.00;;;;;;5039425;28;20024;-83
2021/12/01 09:03:23;;;;;;;2.33;2.00;;;12.10;77.00;;;;;;5044922;28;20032;-84
2021/12/01 09:05:49;;;;;;;2.30;1.90;;;12.10;77.00;;;;;;5067581;28;20037;-83
2021/12/01 09:08:17;;;;;;;2.65;2.05;;;12.10;77.00;;;;;;5052610;28;20029;-84
2021/12/01 09:10:44;;;;;;;2.17;1.92;;;12.10;77.00;;;;;;5039458;28;20056;-88
2021/12/01 09:13:10;;;;;;;2.67;2.20;;;12.10;77.00;;;;;;5055763;28;20029;-84
2021/12/01 09:16:14;;;;;;;2.78;2.20;;;12.10;77.00;;;;;;5043825;28;20048;-84
2021/12/01 09:18:40;;;;;;;2.47;2.00;;;12.10;77.10;;;;;;5052506;28;20106;-89
2021/12/01 09:21:06;;;;;;;2.33;2.13;;;12.10;76.90;;;;;;5018161;28;20401;-85
2021/12/01 09:23:33;;;;;;;2.75;1.95;;;12.10;77.00;;;;;;5061279;28;20027;-84
2021/12/01 09:25:58;;;;;;;2.35;2.10;;;12.10;77.00;;;;;;5045444;28;20056;-86
2021/12/01 09:28:25;;;;;;;2.35;1.67;;;12.20;77.00;;;;;;5032143;28;20067;-85
2021/12/01 09:30:56;;;;;;;2.20;2.00;;;12.10;77.00;;;;;;5054516;28;20086;-84
2021/12/01 09:33:22;;;;;;;2.72;2.08;;;12.20;77.10;;;;;;5051048;28;20033;-82
2021/12/01 09:35:48;;;;;;;2.17;1.85;;;12.20;77.00;;;;;;5071184;28;20036;-84
2021/12/01 09:38:16;;;;;;;2.75;1.90;;;12.20;77.00;;;;;;5052025;28;20020;-83
2021/12/01 09:40:49;;;;;;;2.28;1.88;;;12.10;77.00;;;;;;5042406;28;20017;-84
2021/12/01 09:43:17;;;;;;;2.47;1.73;;;12.20;77.00;;;;;;5059060;28;20094;-84
2021/12/01 09:45:43;;;;;;;1.70;1.60;;;12.20;77.00;;;;;;5061232;28;20047;-84
2021/12/01 09:48:08;;;;;;;2.38;1.58;;;12.20;77.00;;;;;;5077275;28;20032;-84
2021/12/01 09:50:34;;;;;;;2.35;1.60;;;12.20;77.00;;;;;;5070947;28;20021;-83
2021/12/01 09:53:00;;;;;;;1.80;1.58;;;12.20;77.00;;;;;;5058031;28;20059;-84
2021/12/01 09:55:26;;;;;;;1.90;1.65;;;12.20;77.00;;;;;;5058300;28;20116;-83
2021/12/01 09:58:03;;;;;;;2.80;1.80;;;12.20;77.00;;;;;;5054273;28;20055;-83
2021/12/01 10:00:29;;;;;;;2.10;1.50;;;12.20;77.00;;;;;;5070312;28;20024;-83
2021/12/01 10:02:56;;;;;;;1.77;1.35;;;12.20;77.00;;;;;;5058326;28;20074;-83
2021/12/01 10:05:46;;;;;;;2.47;1.40;;;12.20;77.00;;;;;;5057432;28;20392;-84
2021/12/01 10:08:25;;;;;;;1.67;1.55;;;12.20;77.10;;;;;;5056081;28;20031;-85
2021/12/01 10:10:52;;;;;;;2.88;1.50;;;12.20;77.00;;;;;;5073852;28;20112;-84
2021/12/01 10:13:30;;;;;;;2.20;1.40;;;12.20;77.00;;;;;;5055950;28;20540;-82
2021/12/01 10:16:01;;;;;;;3.17;1.50;;;12.20;77.10;;;;;;5071770;28;20039;-82
2021/12/01 10:18:28;;;;;;;1.30;1.10;;;12.20;77.00;;;;;;5055989;28;20048;-81
2021/12/01 10:21:17;;;;;;;2.75;1.40;;;12.20;77.00;;;;;;5066540;28;20017;-85
2021/12/01 10:23:47;;;;;;;2.83;1.40;;;12.20;77.10;;;;;;5038723;28;20029;-88
2021/12/01 10:26:27;;;;;;;3.70;1.63;;;12.20;77.00;;;;;;5069543;28;20060;-85
2021/12/01 10:29:10;;;;;;;1.50;1.25;;;12.20;77.00;;;;;;5050245;28;20033;-86
2021/12/01 10:31:43;;;;;;;1.38;1.23;;;12.30;77.00;;;;;;5073850;28;20039;-88
2021/12/01 10:34:26;;;;;;;2.88;1.20;;;12.20;77.00;;;;;;5073861;28;20039;-86
2021/12/01 10:37:15;;;;;;;1.67;1.30;;;12.30;77.10;;;;;;5048135;28;20039;-89
2021/12/01 10:39:46;;;;;;;1.90;1.30;;;12.20;77.10;;;;;;5058407;28;20035;-85
2021/12/01 10:42:15;;;;;;;2.25;1.40;;;12.20;77.00;;;;;;5044990;28;20094;-86
2021/12/01 10:45:16;;;;;;;1.63;1.20;;;12.20;77.00;;;;;;5071136;28;20024;-85
2021/12/01 10:47:43;;;;;;;3.33;1.30;;;12.20;77.10;;;;;;5042600;28;20044;-84
2021/12/01 10:50:12;;;;;;;1.98;1.20;;;12.30;77.00;;;;;;5064822;28;20020;-84
2021/12/01 10:52:42;;;;;;;1.90;1.27;;;12.30;77.00;;;;;;5074403;28;20104;-86
2021/12/01 10:55:12;;;;;;;1.90;1.30;;;12.20;77.00;;;;;;5058418;28;20044;-83
2021/12/01 10:57:55;;;;;;;1.88;1.00;;;12.30;77.00;;;;;;5072714;28;20488;-85
2021/12/01 11:00:39;;;;;;;2.72;1.00;;;12.30;77.70;;;;;;5074030;28;20024;-85
2021/12/01 11:03:12;;;;;;;1.10;1.00;;;12.30;77.10;;;;;;5076608;28;20028;-84
2021/12/01 11:05:43;;;;;;;0.95;0.93;;;12.30;77.00;;;;;;5077646;28;20043;-84
2021/12/01 11:08:17;;;;;;;2.78;1.02;;;12.30;77.00;;;;;;5072077;28;20036;-84
2021/12/01 11:10:45;;;;;;;1.63;1.05;;;12.30;77.10;;;;;;5091557;28;20028;-88
2021/12/01 11:13:12;;;;;;;2.30;0.98;;;12.30;77.00;;;;;;5086661;28;20029;-86
2021/12/01 11:15:41;;;;;;;0.88;0.88;;;12.30;77.00;;;;;;5074508;28;20043;-84
2021/12/01 11:18:09;;;;;;;1.63;0.90;;;12.30;77.00;;;;;;5058011;28;20044;-84
2021/12/01 11:20:47;;;;;;;1.92;1.20;;;12.30;77.00;;;;;;5048509;28;20028;-84
2021/12/01 11:23:21;;;;;;;0.88;0.80;;;12.30;77.10;;;;;;5056719;28;20020;-85
2021/12/01 11:26:19;;;;;;;1.23;1.05;;;12.30;77.70;;;;;;5065549;28;20035;-84
2021/12/01 11:28:48;;;;;;;1.40;0.90;;;12.30;77.20;;;;;;5070372;28;20087;-84
2021/12/01 11:31:19;;;;;;;1.85;0.90;;;12.30;77.10;;;;;;5067652;28;20028;-84
2021/12/01 11:33:47;;;;;;;0.93;0.88;;;12.30;77.00;;;;;;5055044;28;20086;-85
2021/12/01 11:36:21;;;;;;;1.85;0.90;;;12.30;77.00;;;;;;5053702;28;20389;-85
2021/12/01 11:38:52;;;;;;;1.33;1.00;;;12.30;77.10;;;;;;5071912;28;20064;-84
2021/12/01 11:41:19;;;;;;;1.23;0.80;;;12.30;77.00;;;;;;5072779;28;20020;-84
2021/12/01 11:43:45;;;;;;;1.15;0.90;;;12.30;77.00;;;;;;5074215;28;20031;-85
2021/12/01 11:46:11;;;;;;;1.10;1.00;;;12.30;77.00;;;;;;5073970;28;20032;-84
2021/12/01 11:48:46;;;;;;;2.40;0.88;;;12.30;77.00;;;;;;5072879;28;20055;-84
2021/12/01 11:51:44;;;;;;;1.00;0.90;;;12.30;77.00;;;;;;5066404;28;20473;-84
2021/12/01 11:54:19;;;;;;;1.88;0.90;;;12.30;77.00;;;;;;5049445;28;20044;-85
2021/12/01 11:56:52;;;;;;;1.60;1.10;;;12.30;77.00;;;;;;5071406;28;20055;-86
2021/12/01 11:59:30;;;;;;;1.10;0.80;;;12.30;77.00;;;;;;5071134;28;20020;-84
2021/12/01 12:02:16;;;;;;;1.10;1.00;;;12.30;77.00;;;;;;5071742;28;20032;-83
2021/12/01 12:04:44;;;;;;;1.77;0.82;;;12.40;77.10;;;;;;5049209;28;20063;-85
2021/12/01 12:07:14;;;;;;;2.47;1.10;;;12.30;77.00;;;;;;5072998;28;20461;-83
2021/12/01 12:09:40;;;;;;;1.25;1.05;;;12.30;77.00;;;;;;5074384;28;20028;-82
2021/12/01 12:12:17;;;;;;;0.90;0.90;;;12.30;77.00;;;;;;5040435;28;20036;-83
2021/12/01 12:14:46;;;;;;;1.83;1.00;;;12.30;77.00;;;;;;5037689;28;20047;-85
2021/12/01 12:17:14;;;;;;;1.83;1.17;;;12.30;77.00;;;;;;5036897;28;20032;-84
2021/12/01 12:19:43;;;;;;;2.63;1.10;;;12.30;77.00;;;;;;5055528;28;20477;-85
2021/12/01 12:22:19;;;;;;;1.73;0.90;;;12.30;77.00;;;;;;5056360;28;20020;-86
2021/12/01 12:24:52;;;;;;;2.33;1.20;;;12.30;77.60;;;;;;5073551;28;20060;-86
2021/12/01 12:27:45;;;;;;;2.50;1.00;;;12.30;77.00;;;;;;5069745;28;20035;-85
2021/12/01 12:30:28;;;;;;;1.73;1.00;;;12.30;77.10;;;;;;5055318;28;20037;-85
2021/12/01 12:33:32;;;;;;;2.95;0.90;;;12.30;77.00;;;;;;5073492;28;20032;-85
2021/12/01 12:36:10;;;;;;;1.52;1.00;;;12.30;77.10;;;;;;5057078;28;20028;-85
2021/12/01 12:38:37;;;;;;;1.40;0.98;;;12.30;77.00;;;;;;5073795;28;20063;-85
2021/12/01 12:41:14;;;;;;;2.08;1.05;;;12.30;77.00;;;;;;5056783;28;20047;-87
2021/12/01 12:43:42;;;;;;;1.70;0.90;;;12.30;77.10;;;;;;5073803;28;20037;-86
2021/12/01 12:46:12;;;;;;;1.20;1.00;;;12.30;77.00;;;;;;5044068;28;20025;-86
2021/12/01 12:48:44;;;;;;;1.38;1.10;;;12.30;77.00;;;;;;5060894;28;20507;-85
2021/12/01 12:51:12;;;;;;;2.67;1.10;;;12.30;77.00;;;;;;5056909;28;20045;-84
2021/12/01 12:53:59;;;;;;;3.17;1.27;;;12.30;77.00;;;;;;5074622;28;20024;-85
2021/12/01 12:59:48;;;;;;;2.95;1.10;;;12.30;77.10;;;;;;5021712;28;20038;-85
2021/12/01 13:02:15;;;;;;;1.58;1.00;;;12.30;76.90;;;;;;5034763;28;20497;-85
2021/12/01 13:04:58;;;;;;;1.27;1.00;;;12.30;77.00;;;;;;5033518;28;20034;-84